Wind From: 11-12-2017 04:25 Until: 16:00 warning for: Wind Level: Orange info button

Power and phone distribution networks may be disrupted for relatively long periods., Roofs and chimneys can be damaged. , Tree branches may break. , Vehicles can be deported. , Traffic may be disrupted, particularly on secondary roads in forest areas. Limit your trips. , Limit your speed in highway driving, especially if you drive a vehicle or hitch sensitive to wind. , Do not go for walks in forests or along the coast., In town, be vigilant against possible falling objects., Do not work on roofs and do not touch any electrical line fallen on the ground., Store or secure sensitive objects to wind or likely to be damaged., Always install power generators outside buildings. 


Meteo18 Weather Cam more information Meteo18 Weather Cam


Thunder radar more information blitzortung!


Rain radar more information rain snow radar


Visit our other weather sites:

Template documentation
and downloads

And another site



Weather Underground History page Text

Daily Summary for April 4, 2017 Units:  Metric    English   Both
« Previous Day
Next Day »
Daily Weekly Monthly Yearly Custom
  High: Low: Average:
Temperature: 17.4 °C 6.7 °C 11.9 °C
Dew Point: 10.1 °C 3.8 °C 6.9 °C
Humidity: 87 % 54 % 72 %
Wind Speed: 19.3 km/h 0.0 km/h 2.9 km/h
Wind Gust: 22.5 km/h - -
Wind:- - WSW
Pressure: 1025.6 hPa 1023.2 hPa -
Precipitation: 0.0 mm    
Historical Graphs
 
 
Tabular Data for April 4, 2017
Time Temperature Dew Point Pressure Wind Wind Speed Wind Gust Humidity Rainfall Rate (Hourly)
00:02 10.1 °C 5.3 °C 1025.3 hPa WNW 3.2 km/h 3.2 km/h 72 % 0.0 mm
00:12 9.9 °C 5.3 °C 1025.6 hPa WNW 3.2 km/h 3.2 km/h 73 % 0.0 mm
00:17 9.8 °C 5.2 °C 1025.6 hPa WNW 1.6 km/h 3.2 km/h 73 % 0.0 mm
00:22 9.9 °C 5.3 °C 1025.6 hPa WNW 1.6 km/h 3.2 km/h 73 % 0.0 mm
00:32 9.9 °C 5.1 °C 1025.6 hPa WNW 3.2 km/h 3.2 km/h 72 % 0.0 mm
00:42 9.7 °C 5.1 °C 1025.6 hPa Calm   3.2 km/h 73 % 0.0 mm
00:47 9.6 °C 5.0 °C 1025.6 hPa NW 1.6 km/h 3.2 km/h 73 % 0.0 mm
00:52 9.6 °C 5.0 °C 1025.3 hPa NW 1.6 km/h 1.6 km/h 73 % 0.0 mm
00:57 9.7 °C 5.1 °C 1025.3 hPa NW 1.6 km/h 3.2 km/h 73 % 0.0 mm
01:02 9.4 °C 5.0 °C 1025.3 hPa WNW 3.2 km/h 3.2 km/h 74 % 0.0 mm
01:12 9.3 °C 4.9 °C 1025.3 hPa WNW 3.2 km/h 4.8 km/h 74 % 0.0 mm
01:17 9.2 °C 4.8 °C 1025.3 hPa WNW 3.2 km/h 4.8 km/h 74 % 0.0 mm
01:22 8.9 °C 4.7 °C 1025.3 hPa Calm   3.2 km/h 75 % 0.0 mm
01:27 8.9 °C 4.7 °C 1025.3 hPa WNW 1.6 km/h 3.2 km/h 75 % 0.0 mm
01:32 9.1 °C 4.9 °C 1025.3 hPa Calm   3.2 km/h 75 % 0.0 mm
01:37 8.7 °C 4.7 °C 1025.3 hPa WNW 1.6 km/h 1.6 km/h 76 % 0.0 mm
01:42 8.4 °C 4.8 °C 1025.3 hPa WNW 3.2 km/h 3.2 km/h 78 % 0.0 mm
01:47 8.5 °C 4.7 °C 1025.3 hPa WNW 3.2 km/h 3.2 km/h 77 % 0.0 mm
01:52 8.6 °C 4.6 °C 1025.3 hPa WNW 1.6 km/h 4.8 km/h 76 % 0.0 mm
01:57 8.3 °C 4.5 °C 1025.3 hPa WNW 3.2 km/h 4.8 km/h 77 % 0.0 mm
02:02 8.3 °C 4.7 °C 1025.3 hPa WNW 3.2 km/h 4.8 km/h 78 % 0.0 mm
02:07 8.4 °C 4.6 °C 1025.3 hPa WNW 1.6 km/h 3.2 km/h 77 % 0.0 mm
02:12 8.4 °C 4.6 °C 1025.3 hPa WNW 3.2 km/h 3.2 km/h 77 % 0.0 mm
02:17 8.2 °C 4.4 °C 1025.3 hPa WNW 3.2 km/h 3.2 km/h 77 % 0.0 mm
02:22 8.1 °C 4.5 °C 1024.9 hPa WNW 3.2 km/h 3.2 km/h 78 % 0.0 mm
02:27 8.1 °C 4.5 °C 1024.9 hPa Calm   3.2 km/h 78 % 0.0 mm
02:32 8.1 °C 4.5 °C 1024.9 hPa WNW 1.6 km/h 3.2 km/h 78 % 0.0 mm
02:37 8.0 °C 4.4 °C 1024.9 hPa WNW 3.2 km/h 3.2 km/h 78 % 0.0 mm
02:42 8.0 °C 4.6 °C 1024.9 hPa WNW 3.2 km/h 3.2 km/h 79 % 0.0 mm
02:47 8.2 °C 4.6 °C 1024.9 hPa WNW 1.6 km/h 3.2 km/h 78 % 0.0 mm
02:52 8.2 °C 4.6 °C 1024.9 hPa WNW 3.2 km/h 3.2 km/h 78 % 0.0 mm
02:57 8.1 °C 4.3 °C 1024.9 hPa WNW 3.2 km/h 3.2 km/h 77 % 0.0 mm
03:02 7.8 °C 4.4 °C 1024.9 hPa WNW 1.6 km/h 3.2 km/h 79 % 0.0 mm
03:07 7.9 °C 4.5 °C 1024.9 hPa WNW 1.6 km/h 3.2 km/h 79 % 0.0 mm
03:12 7.9 °C 4.5 °C 1024.9 hPa Calm   3.2 km/h 79 % 0.0 mm
03:17 7.8 °C 4.4 °C 1024.6 hPa WNW 1.6 km/h 3.2 km/h 79 % 0.0 mm
03:22 7.5 °C 4.3 °C 1024.9 hPa WNW 1.6 km/h 1.6 km/h 80 % 0.0 mm
03:32 7.4 °C 4.2 °C 1024.6 hPa WNW 1.6 km/h 3.2 km/h 80 % 0.0 mm
03:37 7.3 °C 4.1 °C 1024.6 hPa Calm   3.2 km/h 80 % 0.0 mm
03:42 7.1 °C 4.1 °C 1024.6 hPa WNW 3.2 km/h 3.2 km/h 81 % 0.0 mm
03:47 7.2 °C 4.2 °C 1024.6 hPa Calm   3.2 km/h 81 % 0.0 mm
03:52 7.6 °C 4.5 °C 1024.9 hPa Calm   3.2 km/h 81 % 0.0 mm
03:57 7.7 °C 4.3 °C 1024.9 hPa Calm   3.2 km/h 79 % 0.0 mm
04:02 7.6 °C 4.2 °C 1024.9 hPa Calm   1.6 km/h 79 % 0.0 mm
04:07 7.3 °C 4.1 °C 1024.6 hPa Calm   1.6 km/h 80 % 0.0 mm
04:12 7.2 °C 4.2 °C 1024.9 hPa Calm   1.6 km/h 81 % 0.0 mm
04:17 7.2 °C 4.3 °C 1024.9 hPa Calm   1.6 km/h 82 % 0.0 mm
04:22 7.2 °C 4.2 °C 1024.9 hPa Calm   1.6 km/h 81 % 0.0 mm
04:27 7.3 °C 4.3 °C 1024.6 hPa Calm   1.6 km/h 81 % 0.0 mm
04:32 7.3 °C 4.3 °C 1024.6 hPa Calm     81 % 0.0 mm
04:37 7.0 °C 4.0 °C 1024.6 hPa Calm   1.6 km/h 81 % 0.0 mm
04:42 6.8 °C 3.9 °C 1024.6 hPa Calm   1.6 km/h 82 % 0.0 mm
04:47 6.7 °C 3.8 °C 1024.6 hPa Calm   1.6 km/h 82 % 0.0 mm
04:52 6.7 °C 4.0 °C 1024.6 hPa Calm   1.6 km/h 83 % 0.0 mm
04:57 6.9 °C 4.0 °C 1024.6 hPa Calm     82 % 0.0 mm
05:02 7.1 °C 4.2 °C 1024.9 hPa Calm     82 % 0.0 mm
05:12 7.4 °C 4.4 °C 1024.6 hPa Calm     81 % 0.0 mm
05:17 7.5 °C 4.6 °C 1024.6 hPa Calm   3.2 km/h 82 % 0.0 mm
05:22 7.7 °C 4.5 °C 1024.6 hPa Calm   3.2 km/h 80 % 0.0 mm
05:27 7.6 °C 4.7 °C 1024.6 hPa Calm   3.2 km/h 82 % 0.0 mm
05:32 7.4 °C 4.7 °C 1024.6 hPa Calm   3.2 km/h 83 % 0.0 mm
05:37 7.3 °C 4.6 °C 1024.6 hPa Calm   3.2 km/h 83 % 0.0 mm
05:42 7.4 °C 4.9 °C 1024.6 hPa NE 8.0 km/h 8.0 km/h 84 % 0.0 mm
05:52 7.2 °C 4.8 °C 1024.6 hPa Calm   12.9 km/h 85 % 0.0 mm
05:57 7.1 °C 4.9 °C 1024.6 hPa Calm   12.9 km/h 86 % 0.0 mm
06:02 7.1 °C 5.1 °C 1024.6 hPa Calm   8.0 km/h 87 % 0.0 mm
06:12 7.2 °C 5.2 °C 1024.6 hPa Calm   3.2 km/h 87 % 0.0 mm
06:17 7.3 °C 5.3 °C 1024.9 hPa NW 1.6 km/h 3.2 km/h 87 % 0.0 mm
06:22 7.4 °C 5.4 °C 1024.9 hPa NNW 1.6 km/h 11.3 km/h 87 % 0.0 mm
06:27 7.5 °C 5.3 °C 1024.9 hPa NW 1.6 km/h 11.3 km/h 86 % 0.0 mm
06:32 7.6 °C 5.4 °C 1024.9 hPa Calm   3.2 km/h 86 % 0.0 mm
06:42 7.8 °C 5.3 °C 1024.6 hPa Calm   1.6 km/h 84 % 0.0 mm
06:47 7.8 °C 5.4 °C 1024.6 hPa Calm   1.6 km/h 85 % 0.0 mm
06:52 7.7 °C 5.3 °C 1024.6 hPa Calm   3.2 km/h 85 % 0.0 mm
07:02 7.7 °C 5.3 °C 1024.6 hPa Calm   3.2 km/h 85 % 0.0 mm
07:07 7.8 °C 5.4 °C 1024.6 hPa Calm   3.2 km/h 85 % 0.0 mm
07:12 7.7 °C 5.5 °C 1024.6 hPa Calm   3.2 km/h 86 % 0.0 mm
07:17 7.6 °C 5.4 °C 1024.6 hPa Calm   1.6 km/h 86 % 0.0 mm
07:22 7.6 °C 5.4 °C 1024.6 hPa Calm   1.6 km/h 86 % 0.0 mm
07:32 7.5 °C 5.5 °C 1024.6 hPa Calm   1.6 km/h 87 % 0.0 mm
07:37 7.5 °C 5.5 °C 1024.6 hPa Calm   1.6 km/h 87 % 0.0 mm
07:42 7.6 °C 5.6 °C 1024.6 hPa Calm   1.6 km/h 87 % 0.0 mm
07:52 7.8 °C 5.6 °C 1024.6 hPa Calm   1.6 km/h 86 % 0.0 mm
07:57 7.8 °C 5.6 °C 1024.9 hPa Calm   1.6 km/h 86 % 0.0 mm
08:02 7.8 °C 5.6 °C 1024.9 hPa NNE 3.2 km/h 3.2 km/h 86 % 0.0 mm
08:12 8.3 °C 5.8 °C 1024.9 hPa NNW 1.6 km/h 4.8 km/h 84 % 0.0 mm
08:17 8.3 °C 5.8 °C 1024.9 hPa Calm   4.8 km/h 84 % 0.0 mm
08:22 8.3 °C 5.9 °C 1024.9 hPa Calm   1.6 km/h 85 % 0.0 mm
08:32 8.2 °C 5.8 °C 1024.9 hPa Calm   3.2 km/h 85 % 0.0 mm
08:37 8.2 °C 5.8 °C 1024.9 hPa North 3.2 km/h 3.2 km/h 85 % 0.0 mm
08:42 8.5 °C 6.1 °C 1024.9 hPa Calm   4.8 km/h 85 % 0.0 mm
08:47 9.0 °C 6.3 °C 1024.9 hPa Calm   4.8 km/h 83 % 0.0 mm
08:52 9.7 °C 6.4 °C 1024.9 hPa Calm   4.8 km/h 80 % 0.0 mm
08:57 10.3 °C 6.4 °C 1024.9 hPa Calm   1.6 km/h 77 % 0.0 mm
09:02 10.3 °C 7.0 °C 1024.9 hPa Calm     80 % 0.0 mm
09:12 10.3 °C 7.4 °C 1024.9 hPa Calm   1.6 km/h 82 % 0.0 mm
09:17 10.7 °C 7.8 °C 1024.9 hPa Calm   1.6 km/h 82 % 0.0 mm
09:22 11.4 °C 8.1 °C 1024.9 hPa Calm   1.6 km/h 80 % 0.0 mm
09:27 12.1 °C 8.0 °C 1024.9 hPa Calm   1.6 km/h 76 % 0.0 mm
09:32 12.2 °C 8.5 °C 1024.9 hPa Calm   1.6 km/h 78 % 0.0 mm
09:37 12.3 °C 8.4 °C 1024.9 hPa Calm   1.6 km/h 77 % 0.0 mm
09:42 12.4 °C 8.7 °C 1024.9 hPa East 1.6 km/h 3.2 km/h 78 % 0.0 mm
09:47 12.7 °C 8.8 °C 1024.9 hPa Calm   3.2 km/h 77 % 0.0 mm
09:52 12.9 °C 8.8 °C 1024.9 hPa ESE 1.6 km/h 3.2 km/h 76 % 0.0 mm
09:57 13.4 °C 8.9 °C 1024.9 hPa East 1.6 km/h 3.2 km/h 74 % 0.0 mm
10:02 13.3 °C 8.4 °C 1024.9 hPa East 1.6 km/h 3.2 km/h 72 % 0.0 mm
10:07 13.8 °C 8.4 °C 1024.9 hPa SE 1.6 km/h 3.2 km/h 70 % 0.0 mm
10:12 14.2 °C 8.2 °C 1024.9 hPa SE 1.6 km/h 3.2 km/h 67 % 0.0 mm
10:17 14.3 °C 8.5 °C 1024.9 hPa SSE 1.6 km/h 4.8 km/h 68 % 0.0 mm
10:22 14.3 °C 8.7 °C 1024.9 hPa Calm   4.8 km/h 69 % 0.0 mm
10:32 14.7 °C 9.5 °C 1024.9 hPa SE 4.8 km/h 4.8 km/h 71 % 0.0 mm
10:42 14.7 °C 9.3 °C 1025.3 hPa ESE 4.8 km/h 6.4 km/h 70 % 0.0 mm
10:47 14.7 °C 9.7 °C 1025.3 hPa East 1.6 km/h 4.8 km/h 72 % 0.0 mm
10:52 14.6 °C 9.8 °C 1025.3 hPa Calm   4.8 km/h 73 % 0.0 mm
10:57 14.6 °C 9.8 °C 1025.3 hPa East 3.2 km/h 4.8 km/h 73 % 0.0 mm
11:02 14.4 °C 9.8 °C 1024.9 hPa SE 1.6 km/h 4.8 km/h 74 % 0.0 mm
11:07 14.7 °C 9.3 °C 1024.9 hPa East 4.8 km/h 4.8 km/h 70 % 0.0 mm
11:12 14.8 °C 9.4 °C 1024.9 hPa ESE 6.4 km/h 6.4 km/h 70 % 0.0 mm
11:17 15.2 °C 10.0 °C 1024.9 hPa SE 1.6 km/h 6.4 km/h 71 % 0.0 mm
11:22 15.4 °C 10.0 °C 1024.9 hPa ESE 4.8 km/h 6.4 km/h 70 % 0.0 mm
11:27 15.3 °C 9.6 °C 1024.9 hPa SE 1.6 km/h 8.0 km/h 69 % 0.0 mm
11:32 15.3 °C 9.2 °C 1024.9 hPa SSE 4.8 km/h 8.0 km/h 67 % 0.0 mm
11:37 15.6 °C 10.1 °C 1024.9 hPa ENE 3.2 km/h 8.0 km/h 70 % 0.0 mm
11:42 15.7 °C 9.6 °C 1024.9 hPa SE 1.6 km/h 8.0 km/h 67 % 0.0 mm
11:47 15.7 °C 10.0 °C 1024.9 hPa SSE 3.2 km/h 6.4 km/h 69 % 0.0 mm
11:52 15.6 °C 9.7 °C 1024.9 hPa Calm   6.4 km/h 68 % 0.0 mm
11:57 15.5 °C 9.2 °C 1024.9 hPa SSW 1.6 km/h 4.8 km/h 66 % 0.0 mm
12:02 15.6 °C 8.8 °C 1024.9 hPa South 1.6 km/h 4.8 km/h 64 % 0.0 mm
12:07 15.6 °C 8.6 °C 1024.9 hPa SSW 1.6 km/h 4.8 km/h 63 % 0.0 mm
12:12 15.7 °C 8.0 °C 1024.9 hPa South 3.2 km/h 4.8 km/h 60 % 0.0 mm
12:17 15.7 °C 8.0 °C 1024.9 hPa SSW 4.8 km/h 8.0 km/h 60 % 0.0 mm
12:22 15.7 °C 8.0 °C 1024.9 hPa SSW 8.0 km/h 9.7 km/h 60 % 0.0 mm
12:27 15.7 °C 8.0 °C 1024.9 hPa SSW 12.9 km/h 12.9 km/h 60 % 0.0 mm
12:32 15.7 °C 8.2 °C 1024.9 hPa SSW 4.8 km/h 12.9 km/h 61 % 0.0 mm
12:42 16.1 °C 8.1 °C 1024.6 hPa SW 8.0 km/h 12.9 km/h 59 % 0.0 mm
12:47 16.0 °C 8.0 °C 1024.6 hPa SSW 9.7 km/h 12.9 km/h 59 % 0.0 mm
12:52 15.8 °C 8.3 °C 1024.6 hPa SW 6.4 km/h 12.9 km/h 61 % 0.0 mm
12:57 15.7 °C 8.2 °C 1024.6 hPa SSW 3.2 km/h 12.9 km/h 61 % 0.0 mm
13:02 15.7 °C 8.4 °C 1024.6 hPa ENE 1.6 km/h 11.3 km/h 62 % 0.0 mm
13:07 15.6 °C 8.8 °C 1024.9 hPa North 1.6 km/h 9.7 km/h 64 % 0.0 mm
13:12 15.6 °C 9.0 °C 1024.6 hPa NNE 1.6 km/h 4.8 km/h 65 % 0.0 mm
13:17 15.6 °C 9.0 °C 1024.6 hPa North 3.2 km/h 4.8 km/h 65 % 0.0 mm
13:22 15.8 °C 8.5 °C 1024.6 hPa East 1.6 km/h 4.8 km/h 62 % 0.0 mm
13:32 16.6 °C 8.3 °C 1024.3 hPa Calm   6.4 km/h 58 % 0.0 mm
13:37 17.0 °C 8.2 °C 1024.3 hPa SE 3.2 km/h 6.4 km/h 56 % 0.0 mm
13:42 17.4 °C 9.1 °C 1024.3 hPa ENE 1.6 km/h 6.4 km/h 58 % 0.0 mm
13:47 17.2 °C 7.8 °C 1024.3 hPa ENE 4.8 km/h 8.0 km/h 54 % 0.0 mm
13:52 16.8 °C 8.0 °C 1024.3 hPa ENE 3.2 km/h 9.7 km/h 56 % 0.0 mm
13:57 16.7 °C 7.6 °C 1024.3 hPa SSE 1.6 km/h 9.7 km/h 55 % 0.0 mm
14:02 16.6 °C 8.0 °C 1024.3 hPa ENE 3.2 km/h 6.4 km/h 57 % 0.0 mm
14:07 16.6 °C 8.3 °C 1024.3 hPa ENE 4.8 km/h 6.4 km/h 58 % 0.0 mm
14:12 16.4 °C 7.6 °C 1024.3 hPa East 1.6 km/h 6.4 km/h 56 % 0.0 mm
14:17 16.5 °C 8.2 °C 1024.3 hPa Calm   6.4 km/h 58 % 0.0 mm
14:22 16.6 °C 8.0 °C 1023.9 hPa Calm   6.4 km/h 57 % 0.0 mm
14:27 16.8 °C 7.4 °C 1023.9 hPa Calm   3.2 km/h 54 % 0.0 mm
14:32 16.7 °C 7.3 °C 1023.9 hPa Calm   3.2 km/h 54 % 0.0 mm
14:37 16.7 °C 7.6 °C 1023.9 hPa WNW 3.2 km/h 3.2 km/h 55 % 0.0 mm
14:42 16.6 °C 7.3 °C 1023.9 hPa Calm   3.2 km/h 54 % 0.0 mm
14:47 16.5 °C 7.4 °C 1023.9 hPa Calm   3.2 km/h 55 % 0.0 mm
14:57 16.5 °C 7.4 °C 1023.9 hPa Calm     55 % 0.0 mm
15:02 16.4 °C 7.3 °C 1023.9 hPa Calm     55 % 0.0 mm
15:07 16.3 °C 7.2 °C 1023.9 hPa Calm     55 % 0.0 mm
15:12 16.3 °C 7.2 °C 1023.9 hPa Calm     55 % 0.0 mm
15:17 16.3 °C 8.0 °C 1023.9 hPa Calm     58 % 0.0 mm
15:22 16.4 °C 7.3 °C 1023.9 hPa Calm     55 % 0.0 mm
15:27 16.4 °C 7.3 °C 1023.6 hPa Calm     55 % 0.0 mm
15:32 16.5 °C 7.4 °C 1023.6 hPa Calm     55 % 0.0 mm
15:37 16.5 °C 7.4 °C 1023.6 hPa Calm     55 % 0.0 mm
15:42 16.4 °C 7.6 °C 1023.6 hPa West 3.2 km/h   56 % 0.0 mm
15:47 16.4 °C 7.9 °C 1023.6 hPa West 6.4 km/h 6.4 km/h 57 % 0.0 mm
15:52 16.3 °C 8.0 °C 1023.6 hPa West 6.4 km/h 6.4 km/h 58 % 0.0 mm
15:57 16.3 °C 8.0 °C 1023.6 hPa West 3.2 km/h 6.4 km/h 58 % 0.0 mm
16:02 16.2 °C 7.7 °C 1023.6 hPa West 1.6 km/h 6.4 km/h 57 % 0.0 mm
16:07 16.1 °C 7.3 °C 1023.6 hPa West 4.8 km/h 6.4 km/h 56 % 0.0 mm
16:12 16.0 °C 7.7 °C 1023.6 hPa WSW 9.7 km/h 9.7 km/h 58 % 0.0 mm
16:17 15.9 °C 7.6 °C 1023.6 hPa West 4.8 km/h 9.7 km/h 58 % 0.0 mm
16:22 15.7 °C 8.4 °C 1023.6 hPa Calm   9.7 km/h 62 % 0.0 mm
16:32 15.3 °C 8.3 °C 1023.6 hPa NW 1.6 km/h 9.7 km/h 63 % 0.0 mm
16:37 15.2 °C 8.0 °C 1023.6 hPa Calm   8.0 km/h 62 % 0.0 mm
16:42 15.1 °C 8.3 °C 1023.6 hPa West 1.6 km/h 8.0 km/h 64 % 0.0 mm
16:52 14.9 °C 8.1 °C 1023.6 hPa West 1.6 km/h 3.2 km/h 64 % 0.0 mm
16:57 15.0 °C 8.0 °C 1023.2 hPa WNW 1.6 km/h 4.8 km/h 63 % 0.0 mm
17:02 15.0 °C 7.8 °C 1023.2 hPa WNW 8.0 km/h 8.0 km/h 62 % 0.0 mm
17:07 14.9 °C 7.9 °C 1023.6 hPa WSW 6.4 km/h 11.3 km/h 63 % 0.0 mm
17:12 14.7 °C 8.0 °C 1023.6 hPa West 6.4 km/h 16.1 km/h 64 % 0.0 mm
17:17 14.5 °C 8.2 °C 1023.6 hPa West 3.2 km/h 16.1 km/h 66 % 0.0 mm
17:22 14.4 °C 8.3 °C 1023.6 hPa NW 9.7 km/h 16.1 km/h 67 % 0.0 mm
17:27 14.3 °C 8.3 °C 1023.6 hPa NNW 4.8 km/h 16.1 km/h 67 % 0.0 mm
17:32 14.4 °C 8.3 °C 1023.6 hPa WNW 8.0 km/h 16.1 km/h 67 % 0.0 mm
17:37 14.3 °C 7.8 °C 1023.6 hPa WNW 3.2 km/h 14.5 km/h 65 % 0.0 mm
17:42 14.2 °C 7.7 °C 1023.6 hPa WNW 4.8 km/h 17.7 km/h 65 % 0.0 mm
17:47 14.2 °C 7.9 °C 1023.6 hPa WNW 8.0 km/h 17.7 km/h 66 % 0.0 mm
17:52 14.1 °C 7.6 °C 1023.6 hPa WNW 6.4 km/h 17.7 km/h 65 % 0.0 mm
17:57 14.1 °C 7.6 °C 1023.6 hPa NW 6.4 km/h 12.9 km/h 65 % 0.0 mm
18:02 14.0 °C 7.5 °C 1023.6 hPa WNW 4.8 km/h 12.9 km/h 65 % 0.0 mm
18:12 13.9 °C 7.0 °C 1023.6 hPa NW 4.8 km/h 11.3 km/h 63 % 0.0 mm
18:17 13.9 °C 7.0 °C 1023.6 hPa WNW 9.7 km/h 12.9 km/h 63 % 0.0 mm
18:22 13.9 °C 7.0 °C 1023.6 hPa WNW 4.8 km/h 12.9 km/h 63 % 0.0 mm
18:32 13.9 °C 7.0 °C 1023.9 hPa WNW 4.8 km/h 12.9 km/h 63 % 0.0 mm
18:42 13.9 °C 6.5 °C 1023.9 hPa WNW 8.0 km/h 12.9 km/h 61 % 0.0 mm
18:47 13.9 °C 7.0 °C 1023.9 hPa NW 6.4 km/h 12.9 km/h 63 % 0.0 mm
18:52 13.8 °C 6.9 °C 1023.9 hPa NW 4.8 km/h 11.3 km/h 63 % 0.0 mm
18:57 13.7 °C 7.0 °C 1023.9 hPa WNW 6.4 km/h 11.3 km/h 64 % 0.0 mm
19:02 13.7 °C 7.0 °C 1023.9 hPa WNW 1.6 km/h 8.0 km/h 64 % 0.0 mm
19:07 13.6 °C 7.1 °C 1023.9 hPa WNW 3.2 km/h 11.3 km/h 65 % 0.0 mm
19:12 13.5 °C 7.0 °C 1023.9 hPa NW 4.8 km/h 11.3 km/h 65 % 0.0 mm
19:17 13.4 °C 7.4 °C 1023.9 hPa West 3.2 km/h 11.3 km/h 67 % 0.0 mm
19:22 13.2 °C 7.4 °C 1023.9 hPa West 6.4 km/h 11.3 km/h 68 % 0.0 mm
19:27 13.1 °C 7.5 °C 1023.9 hPa West 4.8 km/h 11.3 km/h 69 % 0.0 mm
19:32 12.9 °C 7.6 °C 1023.9 hPa WNW 8.0 km/h 11.3 km/h 70 % 0.0 mm
19:37 12.8 °C 7.7 °C 1023.9 hPa WNW 8.0 km/h 11.3 km/h 71 % 0.0 mm
19:42 12.7 °C 7.8 °C 1024.3 hPa West 3.2 km/h 11.3 km/h 72 % 0.0 mm
19:47 12.6 °C 7.7 °C 1024.3 hPa West 3.2 km/h 11.3 km/h 72 % 0.0 mm
19:52 12.4 °C 7.7 °C 1023.9 hPa WNW 6.4 km/h 9.7 km/h 73 % 0.0 mm
19:57 12.3 °C 7.8 °C 1023.9 hPa WNW 4.8 km/h 9.7 km/h 74 % 0.0 mm
20:02 12.2 °C 7.9 °C 1023.9 hPa NW 3.2 km/h 8.0 km/h 75 % 0.0 mm
20:07 12.1 °C 7.8 °C 1023.9 hPa WNW 3.2 km/h 8.0 km/h 75 % 0.0 mm
20:12 12.1 °C 8.0 °C 1023.9 hPa West 3.2 km/h 8.0 km/h 76 % 0.0 mm
20:17 11.9 °C 8.0 °C 1023.9 hPa West 1.6 km/h 8.0 km/h 77 % 0.0 mm
20:22 11.9 °C 8.0 °C 1023.9 hPa WSW 1.6 km/h 8.0 km/h 77 % 0.0 mm
20:27 11.9 °C 8.0 °C 1023.9 hPa NW 4.8 km/h 6.4 km/h 77 % 0.0 mm
20:32 11.9 °C 8.2 °C 1023.9 hPa NW 1.6 km/h 8.0 km/h 78 % 0.0 mm
20:37 11.8 °C 8.1 °C 1023.9 hPa WNW 4.8 km/h 8.0 km/h 78 % 0.0 mm
20:42 11.8 °C 8.1 °C 1024.3 hPa West 1.6 km/h 8.0 km/h 78 % 0.0 mm
20:47 11.8 °C 8.1 °C 1024.3 hPa WNW 4.8 km/h 8.0 km/h 78 % 0.0 mm
20:52 11.9 °C 8.0 °C 1024.3 hPa WNW 6.4 km/h 8.0 km/h 77 % 0.0 mm
20:57 11.9 °C 7.8 °C 1024.3 hPa WNW 3.2 km/h 8.0 km/h 76 % 0.0 mm
21:02 11.9 °C 7.8 °C 1024.3 hPa WNW 1.6 km/h 8.0 km/h 76 % 0.0 mm
21:07 12.0 °C 7.7 °C 1024.3 hPa WNW 8.0 km/h 9.7 km/h 75 % 0.0 mm
21:12 12.1 °C 7.6 °C 1024.3 hPa WNW 4.8 km/h 9.7 km/h 74 % 0.0 mm
21:17 12.2 °C 7.7 °C 1024.3 hPa NW 6.4 km/h 9.7 km/h 74 % 0.0 mm
21:22 12.2 °C 7.7 °C 1024.3 hPa WNW 6.4 km/h 12.9 km/h 74 % 0.0 mm
21:32 12.2 °C 7.5 °C 1024.3 hPa WNW 8.0 km/h 12.9 km/h 73 % 0.0 mm
21:37 12.3 °C 7.6 °C 1024.3 hPa WNW 6.4 km/h 11.3 km/h 73 % 0.0 mm
21:42 12.3 °C 7.6 °C 1024.3 hPa NW 1.6 km/h 11.3 km/h 73 % 0.0 mm
21:47 12.2 °C 7.3 °C 1024.3 hPa NW 3.2 km/h 14.5 km/h 72 % 0.0 mm
21:52 12.2 °C 7.3 °C 1024.3 hPa WNW 3.2 km/h 14.5 km/h 72 % 0.0 mm
21:57 12.2 °C 7.3 °C 1024.3 hPa NW 8.0 km/h 11.3 km/h 72 % 0.0 mm
22:02 12.2 °C 7.5 °C 1024.6 hPa WNW 3.2 km/h 11.3 km/h 73 % 0.0 mm
22:07 12.2 °C 7.5 °C 1024.6 hPa WNW 4.8 km/h 14.5 km/h 73 % 0.0 mm
22:12 12.2 °C 7.7 °C 1024.6 hPa West 3.2 km/h 14.5 km/h 74 % 0.0 mm
22:17 12.2 °C 7.7 °C 1024.6 hPa WNW 11.3 km/h 14.5 km/h 74 % 0.0 mm
22:22 12.2 °C 7.7 °C 1024.6 hPa WNW 8.0 km/h 14.5 km/h 74 % 0.0 mm
22:27 12.1 °C 7.8 °C 1024.6 hPa WNW 8.0 km/h 14.5 km/h 75 % 0.0 mm
22:32 12.1 °C 8.0 °C 1024.6 hPa WSW 3.2 km/h 14.5 km/h 76 % 0.0 mm
22:37 12.1 °C 8.0 °C 1024.6 hPa NW 8.0 km/h 14.5 km/h 76 % 0.0 mm
22:42 12.1 °C 8.2 °C 1024.6 hPa West 6.4 km/h 14.5 km/h 77 % 0.0 mm
22:47 12.0 °C 8.1 °C 1024.6 hPa NW 1.6 km/h 14.5 km/h 77 % 0.0 mm
22:52 12.0 °C 8.3 °C 1024.6 hPa NNW 1.6 km/h 14.5 km/h 78 % 0.0 mm
22:57 12.0 °C 8.3 °C 1024.6 hPa WNW 4.8 km/h 14.5 km/h 78 % 0.0 mm
23:02 12.0 °C 8.3 °C 1024.6 hPa NW 11.3 km/h 11.3 km/h 78 % 0.0 mm
23:07 11.9 °C 8.4 °C 1024.6 hPa NW 3.2 km/h 16.1 km/h 79 % 0.0 mm
23:12 11.9 °C 8.4 °C 1024.6 hPa WNW 1.6 km/h 16.1 km/h 79 % 0.0 mm
23:17 11.9 °C 8.4 °C 1024.6 hPa NW 4.8 km/h 16.1 km/h 79 % 0.0 mm
23:22 11.9 °C 8.4 °C 1024.6 hPa NNW 3.2 km/h 14.5 km/h 79 % 0.0 mm
23:27 11.9 °C 8.4 °C 1024.6 hPa NW 4.8 km/h 14.5 km/h 79 % 0.0 mm
23:32 11.9 °C 8.2 °C 1024.6 hPa NW 8.0 km/h 14.5 km/h 78 % 0.0 mm
23:37 11.9 °C 8.2 °C 1024.6 hPa NNW 9.7 km/h 14.5 km/h 78 % 0.0 mm
23:42 12.1 °C 8.2 °C 1024.9 hPa NNW 9.7 km/h 14.5 km/h 77 % 0.0 mm
23:47 12.1 °C 8.0 °C 1024.9 hPa North 19.3 km/h 20.9 km/h 76 % 0.0 mm
23:52 12.2 °C 8.1 °C 1024.9 hPa NNW 16.1 km/h 22.5 km/h 76 % 0.0 mm
23:57 12.2 °C 7.9 °C 1024.6 hPa North 11.3 km/h 22.5 km/h 75 % 0.0 mm
Meteo18
Compliments of Weather Underground - 4 mb

Script developed by  Jim McMurry - jmcmurry@mwt.net Adapted for the template by  Wim van der Kuil - Leuven-Template.eu

You find our weather info also at:

European Weather Network

Weather Underground

Equipment we use:

Weather-station
Davis Vue

Weather-program
Meteohub

Weather-server
Raspberry PI 2 B+

Provider
1 and 1

Davis Vue

Meteohub

Raspberry PI 2 B+

1 and 1